createdAt,value
2018-06-28T00:01:04.982Z,845.90
2018-06-28T00:03:38.192Z,931.00
2018-06-28T00:06:11.613Z,999.90
2018-06-28T00:08:45.177Z,744.60
2018-06-28T00:11:18.521Z,999.90
2018-06-28T00:13:51.748Z,992.07
2018-06-28T00:16:24.936Z,999.90
2018-06-28T00:18:58.252Z,865.63
2018-06-28T00:21:31.452Z,968.37
2018-06-28T00:24:04.744Z,999.90
2018-06-28T00:26:37.925Z,999.90
2018-06-28T00:29:11.296Z,695.97
2018-06-28T00:31:44.580Z,999.90
2018-06-28T00:34:17.977Z,536.97
2018-06-28T00:36:51.356Z,454.40
2018-06-28T00:39:24.720Z,207.90
2018-06-28T00:41:57.972Z,705.77
2018-06-28T00:44:31.188Z,231.53
2018-06-28T00:47:04.492Z,482.93
2018-06-28T00:49:37.721Z,822.20
2018-06-28T00:52:11.116Z,316.73
2018-06-28T00:54:44.528Z,623.87
2018-06-28T00:57:17.856Z,484.77
2018-06-28T00:59:51.110Z,605.03
2018-06-28T01:02:24.284Z,795.50
2018-06-28T01:04:57.666Z,693.90
2018-06-28T01:07:30.864Z,800.50
2018-06-28T01:10:04.220Z,656.63
2018-06-28T01:12:37.499Z,681.93
2018-06-28T01:15:10.930Z,633.80
2018-06-28T01:17:44.232Z,281.90
2018-06-28T01:20:17.484Z,297.77
2018-06-28T01:22:50.813Z,509.27
2018-06-28T01:25:24.085Z,321.83
2018-06-28T01:27:57.471Z,201.70
2018-06-28T01:30:30.840Z,16.97
2018-06-28T01:33:04.312Z,72.10
2018-06-28T01:35:37.548Z,134.77
2018-06-28T01:38:10.991Z,92.47
2018-06-28T01:40:44.251Z,26.07
2018-06-28T01:43:31.865Z,19.60
2018-06-28T01:46:05.468Z,188.30
2018-06-28T01:48:38.741Z,50.50
2018-06-28T01:51:12.183Z,61.47
2018-06-28T01:53:45.404Z,65.17
2018-06-28T01:56:18.573Z,50.57
2018-06-28T01:58:51.902Z,43.07
2018-06-28T02:01:25.273Z,14.43
2018-06-28T02:03:58.696Z,15.20
2018-06-28T02:06:31.920Z,35.80
2018-06-28T02:09:07.196Z,16.60
2018-06-28T02:11:40.501Z,18.03
2018-06-28T02:14:13.860Z,19.17
2018-06-28T02:16:47.173Z,21.67
2018-06-28T02:19:20.560Z,15.10
2018-06-28T02:21:53.821Z,14.77
2018-06-28T02:24:27.277Z,15.60
2018-06-28T02:27:00.553Z,14.83
2018-06-28T02:29:34.071Z,16.20
2018-06-28T02:32:07.264Z,21.60
2018-06-28T02:34:40.632Z,16.10
2018-06-28T02:37:13.860Z,15.53
2018-06-28T02:39:47.153Z,16.43
2018-06-28T02:42:20.317Z,16.13
2018-06-28T02:44:53.600Z,14.80
2018-06-28T02:47:26.829Z,15.93
2018-06-28T02:50:00.256Z,17.10
2018-06-28T02:52:33.681Z,17.13
2018-06-28T02:55:06.944Z,16.77
2018-06-28T02:57:40.297Z,16.63
2018-06-28T03:00:13.677Z,17.13
2018-06-28T03:02:47.030Z,17.80
2018-06-28T03:05:20.461Z,19.73
2018-06-28T03:07:53.740Z,19.13
2018-06-28T03:10:27.096Z,17.90
2018-06-28T03:13:00.490Z,17.57
2018-06-28T03:15:33.826Z,17.20
2018-06-28T03:18:07.037Z,17.20
2018-06-28T03:20:40.406Z,17.37
2018-06-28T03:23:13.632Z,17.57
2018-06-28T03:25:46.952Z,18.70
2018-06-28T03:28:20.306Z,17.87
2018-06-28T03:30:53.655Z,18.97
2018-06-28T03:33:26.981Z,18.33
2018-06-28T03:36:00.352Z,19.27
2018-06-28T03:38:33.657Z,19.07
2018-06-28T03:41:07.065Z,18.40
2018-06-28T03:43:40.366Z,17.77
2018-06-28T03:46:13.797Z,19.27
2018-06-28T03:48:47.028Z,18.43
2018-06-28T03:51:20.180Z,19.77
2018-06-28T03:53:53.688Z,18.33
2018-06-28T03:56:27.109Z,20.00
2018-06-28T03:59:00.472Z,18.73
2018-06-28T04:01:33.781Z,19.53
2018-06-28T04:04:06.972Z,20.37
2018-06-28T04:06:40.244Z,18.73
2018-06-28T04:09:13.389Z,19.27
2018-06-28T04:11:46.664Z,20.73
2018-06-28T04:14:19.948Z,21.40
2018-06-28T04:16:53.700Z,20.43
2018-06-28T04:19:26.903Z,19.93
2018-06-28T04:22:00.275Z,18.63
2018-06-28T04:24:33.601Z,20.37
2018-06-28T04:27:06.800Z,19.60
2018-06-28T04:29:40.169Z,20.73
2018-06-28T04:32:13.373Z,19.80
2018-06-28T04:34:46.733Z,18.23
2018-06-28T04:37:19.948Z,19.83
2018-06-28T04:39:53.264Z,18.90
2018-06-28T04:42:26.499Z,19.23
2018-06-28T04:44:59.794Z,19.20
2018-06-28T04:47:33.136Z,19.27
2018-06-28T04:50:06.316Z,18.43
2018-06-28T04:52:39.669Z,19.27
2018-06-28T04:55:12.861Z,19.57
2018-06-28T04:57:46.221Z,19.17
2018-06-28T05:00:19.420Z,18.77
2018-06-28T05:02:52.732Z,18.00
2018-06-28T05:05:25.957Z,16.43
2018-06-28T05:07:59.312Z,17.77
2018-06-28T05:10:32.601Z,17.57
2018-06-28T05:13:05.971Z,15.40
2018-06-28T05:15:39.355Z,32.90
2018-06-28T05:18:12.752Z,30.73
2018-06-28T05:20:46.060Z,75.57
2018-06-28T05:23:19.458Z,152.93
2018-06-28T05:25:52.705Z,24.33
2018-06-28T05:28:26.097Z,36.33
2018-06-28T05:30:59.834Z,17.33
2018-06-28T05:33:33.048Z,22.37
2018-06-28T05:36:06.336Z,16.90
2018-06-28T05:38:39.593Z,134.13
2018-06-28T05:41:12.973Z,67.73
2018-06-28T05:43:46.209Z,259.50
2018-06-28T05:46:19.404Z,459.57
2018-06-28T05:48:52.741Z,496.07
2018-06-28T05:51:26.200Z,578.10
2018-06-28T05:53:59.393Z,248.40
2018-06-28T05:56:32.616Z,345.07
2018-06-28T05:59:06.080Z,637.37
2018-06-28T06:01:39.285Z,257.73
2018-06-28T06:04:12.525Z,579.17
2018-06-28T06:06:45.901Z,369.27
2018-06-28T06:09:19.378Z,159.30
2018-06-28T06:11:52.616Z,99.17
2018-06-28T06:14:26.024Z,104.40
2018-06-28T06:16:59.272Z,128.23
2018-06-28T06:19:32.480Z,325.40
2018-06-28T06:22:05.652Z,132.33
2018-06-28T06:24:38.948Z,313.73
2018-06-28T06:27:12.096Z,400.10
2018-06-28T06:29:45.475Z,369.17
2018-06-28T06:32:18.668Z,241.07
2018-06-28T06:34:52.002Z,227.73
2018-06-28T06:37:25.210Z,192.93
2018-06-28T06:39:58.500Z,581.90
2018-06-28T06:42:31.704Z,712.23
2018-06-28T06:45:05.597Z,541.10
2018-06-28T06:47:38.836Z,509.13
2018-06-28T06:50:12.237Z,877.00
2018-06-28T06:52:45.524Z,372.53
2018-06-28T06:55:18.899Z,399.40
2018-06-28T06:57:52.041Z,331.80
2018-06-28T07:00:25.312Z,654.07
2018-06-28T07:02:58.528Z,687.83
2018-06-28T07:05:31.693Z,529.10
2018-06-28T07:08:05.065Z,834.83
2018-06-28T07:10:38.381Z,697.43
2018-06-28T07:13:11.568Z,711.13
2018-06-28T07:15:44.865Z,999.90
2018-06-28T07:18:18.262Z,579.83
2018-06-28T07:20:51.755Z,999.90
2018-06-28T07:23:24.805Z,430.13
2018-06-28T07:25:58.156Z,598.37
2018-06-28T07:28:31.457Z,452.73
2018-06-28T07:31:04.716Z,520.93
2018-06-28T07:33:37.881Z,315.97
2018-06-28T07:36:11.289Z,620.50
2018-06-28T07:38:44.652Z,803.07
2018-06-28T07:41:18.081Z,650.47
2018-06-28T07:43:51.632Z,880.87
2018-06-28T07:46:24.928Z,850.60
2018-06-28T07:48:58.870Z,765.83
2018-06-28T07:51:32.941Z,828.97
2018-06-28T07:54:06.336Z,899.77
2018-06-28T07:56:39.684Z,895.70
2018-06-28T07:59:12.952Z,999.90
2018-06-28T08:01:46.257Z,999.90
2018-06-28T08:04:19.624Z,999.90
2018-06-28T08:06:52.940Z,890.63
2018-06-28T08:09:26.260Z,905.73
2018-06-28T08:11:59.569Z,999.90
2018-06-28T08:14:32.940Z,930.20
2018-06-28T08:17:06.537Z,946.23
2018-06-28T08:19:39.769Z,856.77
2018-06-28T08:22:13.197Z,795.30
2018-06-28T08:24:46.592Z,345.37
2018-06-28T08:27:19.955Z,45.93
2018-06-28T08:29:53.318Z,72.13
2018-06-28T08:32:26.553Z,51.20
2018-06-28T08:34:59.816Z,62.83
2018-06-28T08:37:33.013Z,27.90
2018-06-28T08:40:06.404Z,71.97
2018-06-28T08:42:39.681Z,27.37
2018-06-28T08:45:12.964Z,26.37
2018-06-28T08:47:46.157Z,14.57
2018-06-28T08:50:19.387Z,11.37
2018-06-28T08:52:52.710Z,6.37
2018-06-28T08:55:25.912Z,7.10
2018-06-28T08:57:59.265Z,25.33
2018-06-28T09:00:32.596Z,23.67
2018-06-28T09:03:05.986Z,3.00
2018-06-28T09:05:39.358Z,2.43
2018-06-28T09:08:12.749Z,3.20
2018-06-28T09:10:45.992Z,2.67
2018-06-28T09:13:19.168Z,3.03
2018-06-28T09:15:52.532Z,2.27
2018-06-28T09:18:25.872Z,3.23
2018-06-28T09:20:59.119Z,2.30
2018-06-28T09:23:32.400Z,3.20
2018-06-28T09:26:05.714Z,3.10
2018-06-28T09:28:39.164Z,4.23
2018-06-28T09:31:12.592Z,3.37
2018-06-28T09:33:45.893Z,2.80
2018-06-28T09:36:19.300Z,2.60
2018-06-28T09:38:52.687Z,2.97
2018-06-28T09:41:26.020Z,2.80
2018-06-28T09:43:59.381Z,2.77
2018-06-28T09:46:32.824Z,3.83
2018-06-28T09:49:06.021Z,3.00
2018-06-28T09:51:39.252Z,2.93
2018-06-28T09:54:12.692Z,4.17
2018-06-28T09:56:45.930Z,3.23
2018-06-28T09:59:19.385Z,2.80
2018-06-28T10:01:52.683Z,11.67
2018-06-28T10:04:25.907Z,2.67
2018-06-28T10:06:59.297Z,2.50
2018-06-28T10:09:32.439Z,4.20
2018-06-28T10:12:05.848Z,7.37
2018-06-28T10:14:39.223Z,6.60
2018-06-28T10:17:12.570Z,11.07
2018-06-28T10:19:45.830Z,10.50
2018-06-28T10:22:19.220Z,2.80
2018-06-28T10:24:52.599Z,7.23
2018-06-28T10:27:25.753Z,3.33
2018-06-28T10:29:59.080Z,7.03
2018-06-28T10:32:32.288Z,3.57
2018-06-28T10:35:05.512Z,3.97
2018-06-28T10:37:38.840Z,2.60
2018-06-28T10:40:12.257Z,3.30
2018-06-28T10:42:45.536Z,3.10
2018-06-28T10:45:18.914Z,6.10
2018-06-28T10:47:52.092Z,16.83
2018-06-28T10:50:25.339Z,4.83
2018-06-28T10:52:58.498Z,3.07
2018-06-28T10:55:31.716Z,2.77
2018-06-28T10:58:05.020Z,2.80
2018-06-28T11:00:38.269Z,2.70
2018-06-28T11:03:11.444Z,3.00
2018-06-28T11:05:44.732Z,4.83
2018-06-28T11:08:18.180Z,3.97
2018-06-28T11:10:51.441Z,3.10
2018-06-28T11:13:24.911Z,3.47
2018-06-28T11:15:58.324Z,3.70
2018-06-28T11:18:31.550Z,3.30
2018-06-28T11:21:04.823Z,3.30
2018-06-28T11:23:38.148Z,3.10
2018-06-28T11:26:11.548Z,3.30
2018-06-28T11:28:44.800Z,2.80
2018-06-28T11:31:18.048Z,3.73
2018-06-28T11:33:51.372Z,3.20
2018-06-28T11:36:24.780Z,2.90
2018-06-28T11:38:58.090Z,3.47
2018-06-28T11:41:31.458Z,5.73
2018-06-28T11:44:04.860Z,11.13
2018-06-28T11:46:38.097Z,3.27
2018-06-28T11:49:11.300Z,5.03
2018-06-28T11:51:44.700Z,4.00
2018-06-28T11:54:18.061Z,3.47
2018-06-28T11:56:51.292Z,2.87
2018-06-28T11:59:24.709Z,5.17
2018-06-28T12:01:58.009Z,3.50
2018-06-28T12:04:31.224Z,3.03
2018-06-28T12:07:04.612Z,4.10
2018-06-28T12:09:37.940Z,3.40
2018-06-28T12:12:11.137Z,3.07
2018-06-28T12:14:44.448Z,4.07
2018-06-28T12:17:17.710Z,3.53
2018-06-28T12:19:51.084Z,22.00
2018-06-28T12:22:24.510Z,4.23
2018-06-28T12:24:58.448Z,3.50
2018-06-28T12:27:31.907Z,3.30
2018-06-28T12:30:06.861Z,3.03
2018-06-28T12:32:40.143Z,16.83
2018-06-28T12:35:13.396Z,3.93
2018-06-28T12:37:46.751Z,2.73
2018-06-28T12:40:20.068Z,2.90
2018-06-28T12:42:53.536Z,3.10
2018-06-28T12:45:26.775Z,14.87
2018-06-28T12:48:06.300Z,3.57
2018-06-28T12:50:39.513Z,3.17
2018-06-28T12:53:12.888Z,3.00
2018-06-28T12:56:20.581Z,6.63
2018-06-28T12:58:55.206Z,4.10
2018-06-28T13:01:28.929Z,19.10
2018-06-28T13:04:02.188Z,14.37
2018-06-28T13:06:35.543Z,2.90
2018-06-28T13:09:14.144Z,3.23
2018-06-28T13:11:47.530Z,5.43
2018-06-28T13:14:20.757Z,18.43
2018-06-28T13:16:54.116Z,2.93
2018-06-28T13:19:27.503Z,3.17
2018-06-28T13:22:00.709Z,2.90
2018-06-28T13:24:33.896Z,4.17
2018-06-28T13:27:07.346Z,22.30
2018-06-28T13:29:40.544Z,3.10
2018-06-28T13:32:13.720Z,3.90
2018-06-28T13:34:47.012Z,5.33
2018-06-28T13:37:20.435Z,3.60
2018-06-28T13:39:53.632Z,36.63
2018-06-28T13:42:26.818Z,3.00
2018-06-28T13:45:00.112Z,35.70
2018-06-28T13:47:33.496Z,2.80
2018-06-28T13:50:06.720Z,3.10
2018-06-28T13:52:40.045Z,3.10
2018-06-28T13:55:13.246Z,5.30
2018-06-28T13:57:46.752Z,29.47
2018-06-28T14:00:20.338Z,22.03
2018-06-28T14:02:53.585Z,16.10
2018-06-28T14:05:27.004Z,9.73
2018-06-28T14:08:00.451Z,3.40
2018-06-28T14:10:33.649Z,2.90
2018-06-28T14:13:06.912Z,3.50
2018-06-28T14:15:40.192Z,2.93
2018-06-28T14:18:13.446Z,16.57
2018-06-28T14:20:46.884Z,3.00
2018-06-28T14:23:20.252Z,4.70
2018-06-28T14:25:53.617Z,3.47
2018-06-28T14:28:26.811Z,5.83
2018-06-28T14:31:00.212Z,2.90
2018-06-28T14:33:33.725Z,3.40
2018-06-28T14:36:07.089Z,3.40
2018-06-28T14:38:40.430Z,5.00
2018-06-28T14:41:13.845Z,6.30
2018-06-28T14:43:47.372Z,2.97
2018-06-28T14:46:20.700Z,3.10
2018-06-28T14:48:54.017Z,4.60
2018-06-28T14:51:27.449Z,3.17
2018-06-28T14:54:00.858Z,22.83
2018-06-28T14:56:34.257Z,27.00
2018-06-28T14:59:07.677Z,2.73
2018-06-28T15:01:40.962Z,4.00
2018-06-28T15:04:14.402Z,3.40
2018-06-28T15:06:47.725Z,2.87
2018-06-28T15:09:21.065Z,2.70
2018-06-28T15:11:54.312Z,2.97
2018-06-28T15:14:27.704Z,2.57
2018-06-28T15:17:00.968Z,7.43
2018-06-28T15:19:34.232Z,5.93
2018-06-28T15:22:07.571Z,3.17
2018-06-28T15:24:40.917Z,7.37
2018-06-28T15:27:14.130Z,4.73
2018-06-28T15:29:47.416Z,3.93
2018-06-28T15:32:20.808Z,10.40
2018-06-28T15:34:54.116Z,7.60
2018-06-28T15:37:27.333Z,20.87
2018-06-28T15:40:00.537Z,5.10
2018-06-28T15:42:33.828Z,5.07
2018-06-28T15:45:07.287Z,2.70
2018-06-28T15:47:40.601Z,3.13
2018-06-28T15:50:13.828Z,5.70
2018-06-28T15:52:47.129Z,3.50
2018-06-28T15:55:20.516Z,39.63
2018-06-28T15:57:53.848Z,3.37
2018-06-28T16:00:27.288Z,3.23
2018-06-28T16:03:00.624Z,3.23
2018-06-28T16:05:33.832Z,2.33
2018-06-28T16:08:07.040Z,2.60
2018-06-28T16:10:40.533Z,2.33
2018-06-28T16:13:13.928Z,3.90
2018-06-28T16:15:47.252Z,7.43
2018-06-28T16:18:20.600Z,9.10
2018-06-28T16:20:53.852Z,7.77
2018-06-28T16:23:27.137Z,11.07
2018-06-28T16:26:00.353Z,4.20
2018-06-28T16:28:33.735Z,2.53
2018-06-28T16:31:06.932Z,4.90
2018-06-28T16:33:40.152Z,8.10
2018-06-28T16:36:13.377Z,15.03
2018-06-28T16:38:47.077Z,2.27
2018-06-28T16:41:20.356Z,2.33
2018-06-28T16:43:53.691Z,2.30
2018-06-28T16:46:27.016Z,2.20
2018-06-28T16:49:00.237Z,2.63
2018-06-28T16:51:33.680Z,4.03
2018-06-28T16:54:07.013Z,2.87
2018-06-28T16:56:40.277Z,2.27
2018-06-28T16:59:13.484Z,2.17
2018-06-28T17:01:46.864Z,4.33
2018-06-28T17:04:20.298Z,6.37
2018-06-28T17:06:53.813Z,2.27
2018-06-28T17:09:27.584Z,14.43
2018-06-28T17:12:00.856Z,3.87
2018-06-28T17:14:34.092Z,2.40
2018-06-28T17:17:07.508Z,4.20
2018-06-28T17:19:40.851Z,9.93
2018-06-28T17:22:14.529Z,2.17
2018-06-28T17:24:47.886Z,3.10
2018-06-28T17:27:21.434Z,2.60
2018-06-28T17:29:54.909Z,4.10
2018-06-28T17:32:28.621Z,2.17
2018-06-28T17:35:02.025Z,13.47
2018-06-28T17:37:35.469Z,3.07
2018-06-28T17:40:08.895Z,2.93
2018-06-28T17:42:42.449Z,2.03
2018-06-28T17:45:15.776Z,2.33
2018-06-28T17:47:49.409Z,2.47
2018-06-28T17:50:22.856Z,2.17
2018-06-28T17:52:56.448Z,4.37
2018-06-28T17:55:29.761Z,7.70
2018-06-28T17:58:03.101Z,2.30
2018-06-28T18:00:36.397Z,11.57
2018-06-28T18:03:09.704Z,2.43
2018-06-28T18:05:43.104Z,6.87
2018-06-28T18:08:16.284Z,2.40
2018-06-28T18:10:50.384Z,2.60
2018-06-28T18:13:23.572Z,2.63
2018-06-28T18:15:56.904Z,2.30
2018-06-28T18:18:30.408Z,3.87
2018-06-28T18:21:03.678Z,2.30
2018-06-28T18:23:37.117Z,2.90
2018-06-28T18:26:10.445Z,7.97
2018-06-28T18:28:44.018Z,2.40
2018-06-28T18:31:17.564Z,2.67
2018-06-28T18:33:50.907Z,1.90
2018-06-28T18:36:24.108Z,2.23
2018-06-28T18:38:57.704Z,2.20
2018-06-28T18:41:31.080Z,2.00
2018-06-28T18:44:04.400Z,2.40
2018-06-28T18:46:37.614Z,2.10
2018-06-28T18:49:11.008Z,2.20
2018-06-28T18:51:44.358Z,2.23
2018-06-28T18:54:17.698Z,2.37
2018-06-28T18:56:51.036Z,3.50
2018-06-28T18:59:24.328Z,2.40
2018-06-28T19:01:57.893Z,2.17
2018-06-28T19:04:31.152Z,2.70
2018-06-28T19:07:04.917Z,2.30
2018-06-28T19:09:43.745Z,2.27
2018-06-28T19:12:17.037Z,2.50
2018-06-28T19:14:55.909Z,5.80
2018-06-28T19:17:29.244Z,2.53
2018-06-28T19:20:02.609Z,3.00
2018-06-28T19:22:41.664Z,2.57
2018-06-28T19:25:15.084Z,2.37
2018-06-28T19:27:48.400Z,2.60
2018-06-28T19:30:27.374Z,2.37
2018-06-28T19:33:00.628Z,2.33
2018-06-28T19:35:34.009Z,2.87
2018-06-28T19:38:07.325Z,2.50
2018-06-28T19:40:46.212Z,2.33
2018-06-28T19:43:19.472Z,2.90
2018-06-28T19:45:52.730Z,2.70
2018-06-28T19:48:26.010Z,2.77
2018-06-28T19:51:05.106Z,8.67
2018-06-28T19:53:38.401Z,3.00
2018-06-28T19:56:11.584Z,3.20
2018-06-28T19:58:45.096Z,2.60
2018-06-28T20:01:23.986Z,2.97
2018-06-28T20:04:03.148Z,4.73
2018-06-28T20:06:36.499Z,2.80
2018-06-28T20:09:10.292Z,2.80
2018-06-28T20:11:43.605Z,2.73
2018-06-28T20:14:22.540Z,2.97
2018-06-28T20:17:01.469Z,3.33
2018-06-28T20:19:40.486Z,3.23
2018-06-28T20:22:13.760Z,2.80
2018-06-28T20:24:47.126Z,2.83
2018-06-28T20:27:26.261Z,3.17
2018-06-28T20:30:05.488Z,2.97
2018-06-28T20:32:44.420Z,4.30
2018-06-28T20:35:17.673Z,5.43
2018-06-28T20:37:51.034Z,5.93
2018-06-28T20:40:24.253Z,4.83
2018-06-28T20:42:57.548Z,7.00
2018-06-28T20:45:30.959Z,6.30
2018-06-28T20:48:04.266Z,6.77
2018-06-28T20:50:37.620Z,7.03
2018-06-28T20:53:10.848Z,7.30
2018-06-28T20:55:44.196Z,7.30
2018-06-28T20:58:17.607Z,7.37
2018-06-28T21:00:50.834Z,7.57
2018-06-28T21:03:24.027Z,7.13
2018-06-28T21:05:57.373Z,7.73
2018-06-28T21:08:30.804Z,7.40
2018-06-28T21:11:04.485Z,7.60
2018-06-28T21:13:37.645Z,7.60
2018-06-28T21:16:11.028Z,7.60
2018-06-28T21:18:44.316Z,7.00
2018-06-28T21:21:17.498Z,8.07
2018-06-28T21:23:50.813Z,5.90
2018-06-28T21:26:24.046Z,6.13
2018-06-28T21:28:57.371Z,5.50
2018-06-28T21:31:30.809Z,5.80
2018-06-28T21:34:04.169Z,5.80
2018-06-28T21:36:37.557Z,4.90
2018-06-28T21:39:11.324Z,4.93
2018-06-28T21:41:44.649Z,4.57
2018-06-28T21:44:17.848Z,5.93
2018-06-28T21:46:51.206Z,5.73
2018-06-28T21:49:24.361Z,4.60
2018-06-28T21:51:57.707Z,3.97
2018-06-28T21:54:30.907Z,4.63
2018-06-28T21:57:04.140Z,9.87
2018-06-28T21:59:37.448Z,4.13
2018-06-28T22:02:10.669Z,3.37
2018-06-28T22:04:43.897Z,3.67
2018-06-28T22:07:17.192Z,3.80
2018-06-28T22:09:50.564Z,3.40
2018-06-28T22:12:23.969Z,6.17
2018-06-28T22:14:57.280Z,3.97
2018-06-28T22:17:30.538Z,3.20
2018-06-28T22:20:04.052Z,3.10
2018-06-28T22:22:37.316Z,2.90
2018-06-28T22:25:10.524Z,12.50
2018-06-28T22:27:43.859Z,3.03
2018-06-28T22:30:17.594Z,2.63
2018-06-28T22:32:50.921Z,3.10
2018-06-28T22:35:24.396Z,2.80
2018-06-28T22:37:57.680Z,4.83
2018-06-28T22:40:31.080Z,3.03
2018-06-28T22:43:04.445Z,3.07
2018-06-28T22:45:37.844Z,2.90
2018-06-28T22:48:11.240Z,2.93
2018-06-28T22:50:44.433Z,2.60
2018-06-28T22:53:17.807Z,2.63
2018-06-28T22:55:50.948Z,3.47
2018-06-28T22:58:24.328Z,2.70
2018-06-28T23:00:57.695Z,2.57
2018-06-28T23:03:31.108Z,2.30
2018-06-28T23:06:04.529Z,2.90
2018-06-28T23:08:37.931Z,4.97
2018-06-28T23:11:11.177Z,2.57
2018-06-28T23:13:44.789Z,2.67
2018-06-28T23:16:17.949Z,2.63
2018-06-28T23:18:51.191Z,2.50
2018-06-28T23:21:24.541Z,2.57
2018-06-28T23:23:57.876Z,2.87
2018-06-28T23:26:31.040Z,2.60
2018-06-28T23:29:04.416Z,2.40
2018-06-28T23:31:37.721Z,2.73
2018-06-28T23:34:10.893Z,2.50
2018-06-28T23:36:44.104Z,2.33
2018-06-28T23:39:17.276Z,2.77
2018-06-28T23:41:50.813Z,4.10
2018-06-28T23:44:24.083Z,2.83
2018-06-28T23:46:57.387Z,3.00
2018-06-28T23:49:30.620Z,2.20
2018-06-28T23:52:03.832Z,2.13
2018-06-28T23:54:37.200Z,2.10
2018-06-28T23:57:10.396Z,6.37
2018-06-28T23:59:43.756Z,7.30
